Time;durP1;ratioP1;P1;durP2;ratioP2;P2;SDS_P1;SDS_P2;PMS_P1;PMS_P2;Temp;Humidity;BMP_temperature;BMP_pressure;BME280_temperature;BME280_humidity;BME280_pressure;Samples;Min_cycle;Max_cycle;Signal;HPM_P1;HPM_P2
2021/12/02 00:01:02;;;;;;;2.92;0.60;;;;;;;9.93;43.61;98318.13;6164878;22;99188;-79
2021/12/02 00:03:47;;;;;;;1.75;0.60;;;;;;;10.14;43.48;98326.31;6159095;22;96719;-79
2021/12/02 00:06:21;;;;;;;5.88;0.82;;;;;;;10.13;43.68;98307.94;6158790;22;96900;-78
2021/12/02 00:08:49;;;;;;;7.30;0.93;;;;;;;10.09;43.72;98330.25;6157803;22;99037;-80
2021/12/02 00:11:20;;;;;;;5.50;0.60;;;;;;;8.93;45.77;98317.19;6160791;22;101644;-80
2021/12/02 00:13:55;;;;;;;4.13;0.60;;;;;;;8.98;46.15;98315.13;6167398;22;96639;-79
2021/12/02 00:16:31;;;;;;;7.03;0.70;;;;;;;9.19;45.64;98331.25;6164562;22;97023;-80
2021/12/02 00:22:25;;;;;;;;;;;;;;;;;;;;;
2021/12/02 00:25:10;;;;;;;2.58;0.43;;;;;;;10.23;43.41;98351.25;6157858;22;114525;-80
2021/12/02 00:27:59;;;;;;;;;;;;;;;;;;;;;
2021/12/02 00:30:45;;;;;;;;;;;;;;;;;;;;;
2021/12/02 00:33:22;;;;;;;4.63;0.90;;;;;;;9.63;44.57;98357.22;6161414;22;127174;-80
2021/12/02 00:39:27;;;;;;;5.88;0.57;;;;;;;9.29;45.23;98374.50;6086191;22;96853;-81
2021/12/02 00:42:16;;;;;;;3.55;0.30;;;;;;;9.05;46.18;98382.25;6169021;22;99383;-80
2021/12/02 00:45:12;;;;;;;4.20;0.50;;;;;;;9.47;46.49;98401.38;6164137;22;97826;-79
2021/12/02 00:47:56;;;;;;;;;;;;;;;;;;;;;
2021/12/02 00:50:56;;;;;;;;;;;;;;;;;;;;;
2021/12/02 00:59:44;;;;;;;4.15;0.40;;;;;;;8.73;56.03;98449.34;6163513;22;96937;-80
2021/12/02 01:02:25;;;;;;;;;;;;;;;;;;;;;
2021/12/02 01:05:38;;;;;;;;;;;;;;;;;;;;;
2021/12/02 01:11:59;;;;;;;;;;;;;;;;;;;;;
2021/12/02 01:14:38;;;;;;;1.17;0.22;;;;;;;8.25;56.81;98448.00;6156261;22;110290;-78
2021/12/02 01:17:25;;;;;;;;;;;;;;;;;;;;;
2021/12/02 01:19:52;;;;;;;0.20;0.00;;;;;;;7.74;54.99;98470.44;6145506;22;127780;-80
2021/12/02 01:22:25;;;;;;;0.38;0.20;;;;;;;8.22;55.63;98491.13;6157898;22;96498;-79
2021/12/02 01:25:10;;;;;;;;;;;;;;;;;;;;;
2021/12/02 01:28:03;;;;;;;;;;;;;;;;;;;;;
2021/12/02 01:30:33;;;;;;;1.60;0.13;;;;;;;8.07;54.17;98492.09;6147769;22;126919;-79
2021/12/02 01:33:07;;;;;;;1.23;0.20;;;;;;;7.98;54.19;98509.25;6158370;22;96593;-79
2021/12/02 01:41:33;;;;;;;0.55;0.10;;;;;;;7.83;53.46;98502.28;6036515;23;98704;-79
2021/12/02 01:44:12;;;;;;;12.32;0.28;;;;;;;7.45;53.72;98498.44;6158900;22;96654;-80
2021/12/02 01:46:41;;;;;;;0.90;0.10;;;;;;;7.71;52.36;98510.03;6157617;22;96658;-79
2021/12/02 01:49:21;;;;;;;;;;;;;;;;;;;;;
2021/12/02 01:51:54;;;;;;;0.30;0.10;;;;;;;7.89;50.58;98514.19;6146322;22;128004;-79
2021/12/02 01:54:26;;;;;;;0.65;0.10;;;;;;;8.16;49.44;98506.44;6158904;22;96570;-79
2021/12/02 02:00:23;;;;;;;;;;;;;;;;;;;;;
2021/12/02 02:03:19;;;;;;;0.73;0.10;;;;;;;8.02;49.75;98512.53;6145479;22;127992;-79
2021/12/02 02:06:10;;;;;;;;;;;;;;;;;;;;;
2021/12/02 02:11:39;;;;;;;2.17;0.20;;;;;;;7.59;49.84;98517.72;6157589;22;99424;-79
2021/12/02 02:14:09;;;;;;;1.08;0.10;;;;;;;7.93;50.21;98521.00;6158065;22;98854;-80
2021/12/02 02:16:41;;;;;;;1.85;0.30;;;;;;;7.63;49.74;98523.63;6156814;22;97274;-79
2021/12/02 02:19:31;;;;;;;1.20;0.30;;;;;;;7.89;50.01;98537.88;6156421;22;96782;-79
2021/12/02 02:22:31;;;;;;;0.95;0.10;;;;;;;7.81;49.55;98527.00;6156400;22;100655;-80
2021/12/02 02:25:06;;;;;;;3.83;0.20;;;;;;;7.76;49.55;98539.53;6092304;23;101446;-78
2021/12/02 02:27:43;;;;;;;3.03;0.20;;;;;;;7.78;50.26;98528.00;6095039;23;96965;-80
2021/12/02 02:30:12;;;;;;;2.28;0.13;;;;;;;7.71;50.84;98528.44;6095592;23;96772;-79
2021/12/02 02:32:51;;;;;;;;;;;;;;;;;;;;;
2021/12/02 02:35:48;;;;;;;2.70;0.40;;;;;;;7.77;51.63;98544.72;6155224;22;127934;-79
2021/12/02 02:38:51;;;;;;;;;;;;;;;;;;;;;
2021/12/02 03:02:08;;;;;;;3.67;0.40;;;;;;;8.25;50.29;98572.50;6216849;22;97111;-78
2021/12/02 03:04:42;;;;;;;3.80;0.60;;;;;;;7.93;50.45;98578.84;6215498;22;96575;-78
2021/12/02 03:07:12;;;;;;;5.18;0.50;;;;;;;8.07;49.76;98576.25;6215653;22;99813;-78
2021/12/02 03:09:52;;;;;;;6.25;0.50;;;;;;;7.81;49.92;98559.34;6213957;22;97618;-80
2021/12/02 03:12:25;;;;;;;2.38;0.40;;;;;;;7.84;49.90;98576.75;6185680;22;96663;-78
2021/12/02 03:17:37;;;;;;;3.60;0.30;;;;;;;7.25;53.03;98588.91;6189853;22;98509;-79
2021/12/02 03:20:05;;;;;;;4.80;0.57;;;;;;;7.71;52.47;98595.00;6200206;22;98388;-79
2021/12/02 03:22:33;;;;;;;3.97;0.30;;;;;;;7.88;51.48;98613.28;6206175;22;96558;-78
2021/12/02 03:25:00;;;;;;;3.05;0.88;;;;;;;7.85;52.04;98608.22;6213809;22;96817;-79
2021/12/02 03:27:26;;;;;;;5.75;0.75;;;;;;;7.75;52.51;98604.41;6213590;22;96818;-79
2021/12/02 03:29:53;;;;;;;3.38;0.60;;;;;;;7.97;51.52;98601.38;6213028;22;96405;-78
2021/12/02 03:32:20;;;;;;;5.70;0.45;;;;;;;7.71;52.30;98609.94;6214133;22;96229;-79
2021/12/02 03:34:48;;;;;;;4.57;0.50;;;;;;;7.72;52.49;98616.91;6213633;22;96386;-80
2021/12/02 03:37:16;;;;;;;3.95;0.32;;;;;;;7.86;52.34;98611.69;6197681;22;97715;-79
2021/12/02 03:39:43;;;;;;;4.38;0.50;;;;;;;7.21;53.77;98616.28;6184043;22;99816;-78
2021/12/02 03:42:10;;;;;;;3.42;0.50;;;;;;;7.86;52.05;98623.06;6184509;22;96597;-79
2021/12/02 03:44:37;;;;;;;5.57;1.35;;;;;;;7.88;51.71;98638.72;6185318;22;96833;-79
2021/12/02 03:50:27;;;;;;;3.40;0.40;;;;;;;7.36;53.18;98631.16;6184843;22;96853;-79
2021/12/02 03:52:53;;;;;;;2.53;0.30;;;;;;;7.32;53.18;98640.16;6185546;22;96668;-79
2021/12/02 03:55:20;;;;;;;1.40;0.30;;;;;;;7.48;53.08;98635.72;6189589;22;96676;-79
2021/12/02 03:57:46;;;;;;;3.53;0.73;;;;;;;7.44;53.60;98630.75;6184601;22;98853;-79
2021/12/02 04:00:13;;;;;;;4.15;0.35;;;;;;;7.75;52.26;98650.88;6183967;22;100680;-79
2021/12/02 04:02:40;;;;;;;3.67;0.90;;;;;;;7.73;52.89;98645.72;6185119;22;96575;-79
2021/12/02 04:05:07;;;;;;;3.75;0.63;;;;;;;7.61;53.00;98652.50;6184844;22;97178;-79
2021/12/02 04:07:43;;;;;;;3.67;0.50;;;;;;;8.02;51.77;98663.28;6184169;22;97940;-78
2021/12/02 04:10:10;;;;;;;7.35;0.70;;;;;;;8.02;50.60;98654.56;6183929;22;99048;-79
2021/12/02 04:12:47;;;;;;;6.13;0.55;;;;;;;7.89;51.17;98664.94;6185134;22;96525;-79
2021/12/02 04:15:20;;;;;;;1.70;0.38;;;;;;;7.49;53.13;98683.88;6184745;22;96684;-78
2021/12/02 04:17:48;;;;;;;2.00;0.40;;;;;;;7.15;53.37;98663.91;6184366;22;101152;-78
2021/12/02 04:20:16;;;;;;;3.72;0.40;;;;;;;7.10;53.30;98673.78;6183750;22;99224;-78
2021/12/02 04:22:45;;;;;;;4.57;0.60;;;;;;;7.51;52.55;98687.28;6184714;22;96678;-78
2021/12/02 04:25:13;;;;;;;3.63;0.40;;;;;;;7.89;51.48;98693.88;6184818;22;96871;-78
2021/12/02 04:27:40;;;;;;;3.38;0.32;;;;;;;8.03;50.78;98685.19;6184444;22;98075;-78
2021/12/02 04:30:10;;;;;;;3.30;0.22;;;;;;;7.76;50.95;98689.38;6184644;22;98847;-78
2021/12/02 04:32:37;;;;;;;1.05;0.25;;;;;;;7.51;51.59;98682.88;6185379;22;96546;-78
2021/12/02 04:35:05;;;;;;;3.63;0.73;;;;;;;7.34;52.34;98701.38;6185027;22;97435;-78
2021/12/02 04:37:31;;;;;;;2.55;0.50;;;;;;;7.53;51.63;98693.31;6185850;22;98253;-78
2021/12/02 04:39:59;;;;;;;1.73;0.38;;;;;;;7.53;51.85;98704.69;6185065;22;99089;-78
2021/12/02 04:42:25;;;;;;;3.47;0.57;;;;;;;7.39;52.35;98719.50;6186340;22;96569;-78
2021/12/02 04:44:52;;;;;;;1.27;0.30;;;;;;;7.56;50.97;98732.56;6186024;22;96807;-78
2021/12/02 04:47:19;;;;;;;1.83;0.47;;;;;;;6.93;52.27;98726.38;6186093;22;98927;-78
2021/12/02 04:49:45;;;;;;;3.42;0.43;;;;;;;7.10;52.70;98723.69;6186651;22;99101;-78
2021/12/02 04:52:13;;;;;;;6.32;0.50;;;;;;;7.07;53.72;98737.84;6187033;22;96763;-79
2021/12/02 04:54:39;;;;;;;4.38;0.35;;;;;;;7.60;51.64;98729.69;6187621;22;96955;-79
2021/12/02 04:57:07;;;;;;;3.03;0.70;;;;;;;7.65;51.29;98753.09;6186042;22;98736;-79
2021/12/02 04:59:34;;;;;;;1.50;0.35;;;;;;;7.24;51.93;98747.44;6186064;22;99151;-79
2021/12/02 05:02:00;;;;;;;2.80;0.50;;;;;;;7.31;51.51;98742.72;6186368;22;96564;-79
2021/12/02 05:04:27;;;;;;;4.32;0.45;;;;;;;7.59;50.01;98749.03;6186351;22;96758;-82
2021/12/02 05:06:54;;;;;;;3.40;0.57;;;;;;;7.50;50.13;98748.66;6185554;22;99307;-79
2021/12/02 05:09:20;;;;;;;3.95;0.30;;;;;;;7.45;50.47;98741.03;6185917;22;99537;-79
2021/12/02 05:11:47;;;;;;;2.72;0.40;;;;;;;7.16;51.40;98755.72;6186282;22;96977;-80
2021/12/02 05:14:15;;;;;;;1.52;0.40;;;;;;;7.44;51.05;98754.25;6187291;22;96744;-79
2021/12/02 05:16:42;;;;;;;1.30;0.22;;;;;;;6.89;51.96;98764.22;6185204;22;98879;-78
2021/12/02 05:19:09;;;;;;;2.60;0.70;;;;;;;7.32;51.26;98763.66;6186001;22;101484;-81
2021/12/02 05:21:35;;;;;;;3.92;0.65;;;;;;;7.23;51.80;98772.00;6185730;22;96619;-80
2021/12/02 05:24:02;;;;;;;2.33;0.60;;;;;;;7.51;49.95;98763.50;6186420;22;96759;-80
2021/12/02 05:26:29;;;;;;;2.83;0.40;;;;;;;7.44;50.75;98785.78;6185942;22;99350;-78
2021/12/02 05:28:56;;;;;;;6.40;0.47;;;;;;;7.37;50.45;98773.91;6186101;22;97452;-77
2021/12/02 05:31:24;;;;;;;1.48;0.30;;;;;;;7.15;51.64;98779.47;6186897;22;97097;-78
2021/12/02 05:33:51;;;;;;;3.45;0.45;;;;;;;7.55;50.38;98796.56;6190651;22;96621;-78
2021/12/02 05:36:17;;;;;;;1.50;0.28;;;;;;;6.87;51.22;98801.06;6186963;22;100433;-79
2021/12/02 05:38:44;;;;;;;2.13;0.30;;;;;;;7.15;51.18;98806.56;6186413;22;100651;-79
2021/12/02 05:41:13;;;;;;;2.88;0.30;;;;;;;7.12;50.46;98811.13;6186427;22;97147;-79
2021/12/02 05:43:40;;;;;;;3.10;0.38;;;;;;;7.03;50.69;98806.34;6187201;22;96750;-78
2021/12/02 05:46:06;;;;;;;5.55;0.25;;;;;;;6.99;51.22;98804.81;6184630;22;99282;-78
2021/12/02 05:48:34;;;;;;;7.05;0.40;;;;;;;7.19;50.76;98817.78;6187198;22;97959;-79
2021/12/02 05:51:01;;;;;;;0.98;0.30;;;;;;;7.32;50.41;98816.19;6190582;22;96922;-78
2021/12/02 05:53:28;;;;;;;1.77;0.40;;;;;;;7.44;50.06;98823.44;6190935;22;97067;-78
2021/12/02 05:55:54;;;;;;;5.47;0.45;;;;;;;6.85;50.70;98829.16;6189290;22;98963;-79
2021/12/02 05:58:21;;;;;;;5.05;0.60;;;;;;;7.45;50.05;98819.03;6191573;22;97249;-79
2021/12/02 06:00:48;;;;;;;3.50;0.57;;;;;;;7.67;49.40;98829.25;6192027;22;96706;-79
2021/12/02 06:03:14;;;;;;;2.60;0.45;;;;;;;7.80;48.70;98835.53;6193477;22;96468;-78
2021/12/02 06:05:44;;;;;;;2.90;0.30;;;;;;;6.86;50.64;98819.50;6189442;22;99392;-78
2021/12/02 06:08:10;;;;;;;1.15;0.25;;;;;;;6.99;50.15;98828.44;6189645;22;98841;-79
2021/12/02 06:10:37;;;;;;;2.38;0.40;;;;;;;6.93;50.47;98848.00;6186173;22;96575;-79
2021/12/02 06:13:03;;;;;;;1.17;0.60;;;;;;;6.45;50.78;98839.91;6186261;22;96864;-77
2021/12/02 06:15:30;;;;;;;3.70;0.43;;;;;;;6.66;50.75;98841.50;6187484;22;99797;-78
2021/12/02 06:17:57;;;;;;;0.90;0.30;;;;;;;6.66;49.80;98852.84;6188551;22;101493;-78
2021/12/02 06:20:23;;;;;;;4.90;0.60;;;;;;;6.97;49.82;98867.91;6186763;22;96620;-78
2021/12/02 06:22:51;;;;;;;3.22;0.73;;;;;;;7.06;49.38;98879.72;6187379;22;96724;-77
2021/12/02 06:27:58;;;;;;;1.10;0.40;;;;;;;7.15;49.61;98887.97;6191381;22;98810;-78
2021/12/02 06:30:26;;;;;;;1.50;0.40;;;;;;;7.37;49.08;98881.63;6192195;22;96643;-80
2021/12/02 06:32:53;;;;;;;1.33;0.40;;;;;;;6.95;50.21;98882.91;6195495;22;96852;-78
2021/12/02 06:35:20;;;;;;;6.50;0.60;;;;;;;7.03;49.86;98900.88;6185466;22;98978;-78
2021/12/02 06:37:46;;;;;;;2.53;0.50;;;;;;;7.23;49.40;98908.59;6187814;22;99055;-78
2021/12/02 06:40:15;;;;;;;3.22;0.40;;;;;;;7.06;49.34;98903.38;6185869;22;96665;-78
2021/12/02 06:42:42;;;;;;;3.90;0.55;;;;;;;7.14;49.32;98911.72;6185435;22;96740;-79
2021/12/02 06:45:09;;;;;;;4.07;0.50;;;;;;;7.04;49.71;98924.44;6183414;22;98931;-79
2021/12/02 06:47:38;;;;;;;1.65;0.45;;;;;;;6.31;51.28;98922.75;6187728;22;97809;-78
2021/12/02 06:50:06;;;;;;;1.98;0.70;;;;;;;6.65;50.56;98922.00;6193456;22;97389;-79
2021/12/02 06:52:33;;;;;;;1.38;0.20;;;;;;;6.89;50.87;98924.38;6197384;22;96816;-79
2021/12/02 06:55:00;;;;;;;3.38;0.50;;;;;;;6.43;51.49;98921.34;6202837;22;97770;-78
2021/12/02 06:57:28;;;;;;;4.55;0.60;;;;;;;6.94;50.46;98938.13;6208734;22;97579;-79
2021/12/02 06:59:54;;;;;;;4.35;0.63;;;;;;;7.40;48.76;98939.28;6207868;22;96914;-79
2021/12/02 07:02:25;;;;;;;5.55;0.70;;;;;;;7.21;49.01;98942.00;6211261;22;96534;-82
2021/12/02 07:04:53;;;;;;;3.30;0.40;;;;;;;7.03;49.56;98959.50;6208968;22;99970;-78
2021/12/02 07:07:20;;;;;;;5.32;0.40;;;;;;;6.75;49.23;98948.69;6209912;22;99493;-78
2021/12/02 07:09:46;;;;;;;2.65;0.77;;;;;;;6.93;49.37;98952.19;6207335;22;96540;-79
2021/12/02 07:12:13;;;;;;;1.52;0.40;;;;;;;6.93;49.32;98954.81;6205260;22;97184;-77
2021/12/02 07:14:45;;;;;;;2.08;0.40;;;;;;;7.12;49.08;98964.31;6211084;22;98094;-77
2021/12/02 07:17:11;;;;;;;2.42;0.75;;;;;;;6.56;48.84;98966.22;6209687;22;97693;-79
2021/12/02 07:19:40;;;;;;;2.60;0.60;;;;;;;6.35;49.85;98975.94;6209945;22;96436;-79
2021/12/02 07:22:07;;;;;;;2.92;0.50;;;;;;;7.01;48.86;98986.78;6211726;22;96507;-79
2021/12/02 07:24:36;;;;;;;3.40;0.55;;;;;;;6.94;48.73;98974.88;6199212;22;97728;-82
2021/12/02 11:29:15;;;;;;;;;;;;;;;;;;;;;
2021/12/02 18:39:02;;;;;;;;;;;;;;;;;;;;;
2021/12/02 19:07:12;;;;;;;11.88;2.17;;;;;;;5.50;45.60;99980.63;6199194;22;99298;-78
2021/12/02 19:22:34;;;;;;;14.07;2.00;;;;;;;5.56;46.57;99991.78;6214276;22;98784;-78
2021/12/02 19:39:26;;;;;;;;;;;;;;;;;;;;;
2021/12/02 19:45:23;;;;;;;;;;;;;;;;;;;;;
2021/12/02 19:52:20;;;;;;;;;;;;;;;;;;;;;
2021/12/02 19:55:24;;;;;;;8.32;2.55;;;;;;;5.08;47.60;100038.44;6155884;22;125076;-81
2021/12/02 20:10:28;;;;;;;13.80;2.28;;;;;;;5.72;47.21;100057.75;6182770;22;97844;-77
2021/12/02 20:12:56;;;;;;;7.95;1.95;;;;;;;5.98;46.75;100051.81;6214735;22;96587;-79
2021/12/02 20:15:36;;;;;;;9.20;1.95;;;;;;;5.75;46.97;100065.53;6199865;22;97057;-78
2021/12/02 20:18:03;;;;;;;9.57;2.05;;;;;;;5.44;47.83;100060.25;6207538;22;99515;-79
2021/12/02 20:20:30;;;;;;;9.75;2.05;;;;;;;5.59;47.63;100059.84;6218832;22;97756;-77
2021/12/02 20:22:57;;;;;;;4.13;1.70;;;;;;;5.46;48.02;100060.19;6219020;22;97279;-80
2021/12/02 20:25:23;;;;;;;9.93;2.00;;;;;;;5.71;47.34;100065.69;6206543;22;97120;-77
2021/12/02 20:28:43;;;;;;;;;;;;;;;;;;;;;
2021/12/02 20:31:19;;;;;;;11.80;2.22;;;;;;;5.28;47.87;100068.50;6147112;22;127463;-78
2021/12/02 20:33:46;;;;;;;10.70;2.00;;;;;;;5.40;47.19;100063.84;6195661;22;97202;-76
2021/12/02 20:36:15;;;;;;;8.93;1.92;;;;;;;5.16;48.86;100082.78;6198177;22;99460;-77
2021/12/02 20:38:41;;;;;;;7.85;2.17;;;;;;;5.09;48.31;100079.44;6212601;22;98882;-80
2021/12/02 20:41:08;;;;;;;9.65;2.65;;;;;;;4.86;49.89;100081.72;6213711;22;99066;-76
2021/12/02 20:47:02;;;;;;;13.95;2.15;;;;;;;5.37;48.46;100086.63;6187620;22;97416;-78
2021/12/02 20:49:40;;;;;;;7.82;1.80;;;;;;;5.13;48.25;100085.47;6223499;22;97798;-80
2021/12/02 20:52:13;;;;;;;9.70;1.80;;;;;;;5.52;48.55;100081.00;6232500;22;101652;-77
2021/12/02 20:57:30;;;;;;;7.30;1.88;;;;;;;5.18;48.87;100092.34;6220636;22;99589;-79
2021/12/02 20:59:57;;;;;;;14.57;2.40;;;;;;;5.56;48.08;100087.91;6219772;22;100793;-75
2021/12/02 21:02:25;;;;;;;8.15;2.00;;;;;;;5.16;49.05;100101.97;6188605;22;99384;-78
2021/12/02 21:04:53;;;;;;;8.68;2.40;;;;;;;5.39;48.60;100092.69;6175110;22;98135;-78
2021/12/02 21:07:20;;;;;;;10.23;2.50;;;;;;;5.39;48.87;100100.53;6173551;22;97087;-78
2021/12/02 21:09:48;;;;;;;10.43;3.50;;;;;;;5.73;48.35;100104.03;6182927;22;98288;-79
2021/12/02 21:12:16;;;;;;;12.05;2.20;;;;;;;5.57;48.98;100105.34;6185378;22;98739;-78
2021/12/02 21:14:44;;;;;;;7.15;2.20;;;;;;;5.49;49.79;100102.06;6178349;22;96943;-79
2021/12/02 21:17:11;;;;;;;10.23;2.20;;;;;;;5.39;49.14;100114.50;6176616;22;96934;-78
2021/12/02 21:19:41;;;;;;;12.00;2.08;;;;;;;5.74;48.84;100115.38;6183838;22;99956;-77
2021/12/02 21:22:08;;;;;;;8.93;2.05;;;;;;;5.33;48.78;100112.03;6184626;22;99440;-78
2021/12/02 21:24:37;;;;;;;7.28;2.50;;;;;;;5.53;48.60;100111.53;6181647;22;97089;-77
2021/12/02 21:27:06;;;;;;;8.40;1.98;;;;;;;5.18;49.91;100115.03;6173479;22;97643;-79
2021/12/02 21:29:33;;;;;;;7.85;1.73;;;;;;;5.54;48.41;100108.03;6184305;22;99122;-77
2021/12/02 21:32:01;;;;;;;8.98;3.03;;;;;;;5.45;48.89;100105.63;6185186;22;98133;-79
2021/12/02 21:34:32;;;;;;;12.10;2.10;;;;;;;5.78;48.08;100101.28;6185748;22;97206;-79
2021/12/02 21:37:04;;;;;;;7.75;1.80;;;;;;;5.91;48.10;100113.22;6170940;22;98402;-79
2021/12/02 21:39:34;;;;;;;10.90;2.10;;;;;;;5.69;48.22;100125.13;6184788;22;97981;-79
2021/12/02 21:42:02;;;;;;;9.43;2.15;;;;;;;5.84;48.03;100130.00;6186145;22;98749;-78
2021/12/02 21:44:29;;;;;;;9.63;2.28;;;;;;;5.76;47.96;100130.19;6184792;22;96577;-77
2021/12/02 21:46:55;;;;;;;10.07;2.40;;;;;;;5.70;47.93;100127.72;6161184;22;98998;-77
2021/12/02 21:49:23;;;;;;;7.15;2.33;;;;;;;6.07;47.61;100127.66;6175665;22;99517;-78
2021/12/02 21:51:54;;;;;;;13.80;2.53;;;;;;;5.96;47.70;100133.19;6153023;22;99152;-79
2021/12/02 21:54:22;;;;;;;7.13;1.60;;;;;;;5.74;47.19;100129.34;6154623;22;96969;-78
2021/12/02 21:56:52;;;;;;;9.30;2.00;;;;;;;5.90;47.64;100137.75;6155125;22;96634;-77
2021/12/02 21:59:24;;;;;;;11.98;1.92;;;;;;;5.61;47.99;100130.56;6153502;22;99381;-79
2021/12/02 22:01:52;;;;;;;10.63;1.70;;;;;;;5.75;47.50;100131.09;6153702;22;102285;-77
2021/12/02 22:04:21;;;;;;;8.65;2.08;;;;;;;5.75;47.60;100132.84;6155412;22;97041;-78
2021/12/02 22:06:49;;;;;;;7.18;2.30;;;;;;;5.76;47.77;100140.69;6154837;22;96870;-76
2021/12/02 22:09:16;;;;;;;5.72;1.80;;;;;;;5.73;47.66;100166.97;6153873;22;101456;-77
2021/12/02 22:11:44;;;;;;;7.45;1.63;;;;;;;5.75;47.58;100151.19;6152859;22;99138;-76
2021/12/02 22:14:12;;;;;;;6.85;1.60;;;;;;;5.66;47.85;100154.91;6153505;22;97004;-77
2021/12/02 22:16:39;;;;;;;15.65;2.25;;;;;;;5.62;47.72;100161.13;6153802;22;97097;-77
2021/12/02 22:19:06;;;;;;;8.68;1.85;;;;;;;5.71;47.53;100170.53;6154679;22;102133;-77
2021/12/02 22:21:33;;;;;;;6.32;1.80;;;;;;;5.54;48.32;100176.16;6155803;22;98703;-77
2021/12/02 22:24:01;;;;;;;8.98;1.83;;;;;;;5.47;47.80;100180.69;6154577;22;96595;-77
2021/12/02 22:26:28;;;;;;;14.85;1.70;;;;;;;5.51;47.49;100189.38;6153150;22;96811;-76
2021/12/02 22:28:56;;;;;;;6.53;1.67;;;;;;;5.64;47.34;100198.66;6153681;22;100261;-77
2021/12/02 22:31:22;;;;;;;9.18;2.00;;;;;;;5.53;47.78;100195.41;6156078;22;98802;-79
2021/12/02 22:33:50;;;;;;;11.63;2.25;;;;;;;5.60;47.66;100204.84;6156591;22;96584;-78
2021/12/02 22:36:22;;;;;;;8.40;1.80;;;;;;;5.56;47.14;100206.69;6155142;22;96962;-78
2021/12/02 22:38:48;;;;;;;10.50;2.50;;;;;;;5.42;48.20;100207.91;6156552;22;98112;-77
2021/12/02 22:41:15;;;;;;;8.98;1.55;;;;;;;5.43;48.01;100212.25;6159076;22;99597;-78
2021/12/02 22:43:43;;;;;;;5.97;1.48;;;;;;;5.44;47.95;100213.97;6159883;22;96611;-78
2021/12/02 22:46:12;;;;;;;9.75;1.73;;;;;;;5.41;47.98;100211.41;6157548;22;96814;-77
2021/12/02 22:48:38;;;;;;;6.95;1.67;;;;;;;5.42;48.17;100207.91;6158193;22;97945;-78
2021/12/02 22:51:06;;;;;;;5.13;1.67;;;;;;;5.32;48.08;100217.72;6157879;22;99038;-80
2021/12/02 22:53:33;;;;;;;10.70;1.83;;;;;;;5.41;48.12;100211.41;6160524;22;96617;-79
2021/12/02 22:56:00;;;;;;;8.00;1.70;;;;;;;5.15;48.29;100212.00;6165555;22;96831;-77
2021/12/02 22:58:27;;;;;;;8.65;1.42;;;;;;;5.18;49.17;100218.06;6168466;22;97784;-78
2021/12/02 23:01:05;;;;;;;11.68;2.05;;;;;;;5.28;48.48;100221.31;6173971;22;98797;-77
2021/12/02 23:03:33;;;;;;;7.65;1.60;;;;;;;5.49;47.61;100225.22;6182878;22;96996;-78
2021/12/02 23:05:59;;;;;;;6.30;1.70;;;;;;;5.47;48.00;100227.88;6181803;22;96522;-78
2021/12/02 23:08:27;;;;;;;9.30;2.30;;;;;;;5.16;48.24;100232.94;6180604;22;98003;-78
2021/12/02 23:10:55;;;;;;;7.45;1.90;;;;;;;5.20;48.50;100220.63;6182589;22;97961;-77
2021/12/02 23:13:22;;;;;;;11.45;1.88;;;;;;;5.11;48.66;100228.69;6179607;22;96526;-78
2021/12/02 23:15:50;;;;;;;7.32;1.70;;;;;;;5.20;48.54;100228.47;6181187;22;95863;-78
2021/12/02 23:18:16;;;;;;;10.23;1.70;;;;;;;5.36;48.29;100231.63;6179580;22;97798;-78
2021/12/02 23:20:45;;;;;;;8.65;1.90;;;;;;;5.20;48.47;100229.34;6165482;22;98019;-77
2021/12/02 23:23:12;;;;;;;11.10;2.17;;;;;;;5.07;48.35;100234.88;6158063;22;96593;-78
2021/12/02 23:25:44;;;;;;;8.38;1.92;;;;;;;5.11;48.59;100240.03;6157603;22;96705;-77
2021/12/02 23:28:13;;;;;;;11.60;1.83;;;;;;;5.29;48.13;100243.13;6156847;22;99200;-78
2021/12/02 23:30:44;;;;;;;8.57;1.63;;;;;;;5.23;47.92;100241.53;6155993;22;98708;-77
2021/12/02 23:33:14;;;;;;;10.68;2.20;;;;;;;5.31;48.03;100246.59;6156231;22;96621;-77
2021/12/02 23:35:40;;;;;;;10.02;2.00;;;;;;;5.07;48.10;100248.84;6156463;22;96678;-77
2021/12/02 23:38:08;;;;;;;7.88;2.22;;;;;;;5.29;47.89;100253.63;6156133;22;99377;-77
2021/12/02 23:40:35;;;;;;;10.57;1.70;;;;;;;5.07;48.66;100264.53;6156626;22;99079;-78
2021/12/02 23:43:01;;;;;;;7.28;2.08;;;;;;;4.93;48.45;100256.09;6158929;22;96578;-77
2021/12/02 23:45:28;;;;;;;9.13;1.60;;;;;;;4.86;49.13;100258.91;6158732;22;96854;-76
2021/12/02 23:47:55;;;;;;;14.20;2.28;;;;;;;4.76;49.64;100260.81;6156480;22;99418;-78
2021/12/02 23:50:21;;;;;;;8.15;1.60;;;;;;;5.03;48.78;100268.13;6169538;22;97976;-77
2021/12/02 23:52:48;;;;;;;5.85;1.42;;;;;;;4.96;48.55;100271.75;6157038;22;97028;-77
2021/12/02 23:55:16;;;;;;;6.70;1.33;;;;;;;5.04;49.27;100275.09;6158077;22;96825;-77
2021/12/02 23:57:43;;;;;;;6.85;1.67;;;;;;;4.89;48.76;100264.94;6173259;22;99342;-77
